createdAt,value
2022-12-31T00:05:01.828Z,0.20
2022-12-31T00:10:04.685Z,0.38
2022-12-31T00:15:07.030Z,0.20
2022-12-31T00:20:09.042Z,0.20
2022-12-31T00:25:10.687Z,0.50
2022-12-31T00:30:13.003Z,0.30
2022-12-31T00:35:14.664Z,0.32
2022-12-31T00:40:16.475Z,0.40
2022-12-31T00:45:18.090Z,2.25
2022-12-31T00:50:19.739Z,2.20
2022-12-31T00:55:21.508Z,1.77
2022-12-31T01:00:23.341Z,0.80
2022-12-31T01:05:25.053Z,1.15
2022-12-31T01:10:45.834Z,1.08
2022-12-31T01:15:47.773Z,0.88
2022-12-31T01:20:49.555Z,0.30
2022-12-31T01:25:51.256Z,0.10
2022-12-31T01:30:52.933Z,0.10
2022-12-31T01:35:54.587Z,0.10
2022-12-31T01:40:56.324Z,0.10
2022-12-31T01:45:58.206Z,0.10
2022-12-31T01:50:59.927Z,0.20
2022-12-31T01:56:02.874Z,0.10
2022-12-31T02:01:06.896Z,0.10
2022-12-31T02:06:11.785Z,0.10
2022-12-31T02:11:34.462Z,1.65
2022-12-31T02:16:58.043Z,0.10
2022-12-31T02:22:02.697Z,0.10
2022-12-31T02:27:23.241Z,0.55
2022-12-31T02:32:50.480Z,0.40
2022-12-31T02:37:57.614Z,0.43
2022-12-31T02:42:59.275Z,1.25
2022-12-31T02:48:33.100Z,0.10
2022-12-31T02:53:55.391Z,0.13
2022-12-31T02:59:23.027Z,0.20
2022-12-31T03:04:32.063Z,2.63
2022-12-31T03:09:35.068Z,0.10
2022-12-31T03:14:36.767Z,1.73
2022-12-31T03:19:57.238Z,0.20
2022-12-31T03:25:22.169Z,1.40
2022-12-31T03:30:24.961Z,0.10
2022-12-31T03:35:28.636Z,1.45
2022-12-31T03:40:31.770Z,0.10
2022-12-31T03:45:34.552Z,0.90
2022-12-31T03:50:36.833Z,0.17
2022-12-31T03:55:38.578Z,0.20
2022-12-31T04:00:40.293Z,0.20
2022-12-31T04:05:42.628Z,0.10
2022-12-31T04:10:44.315Z,0.65
2022-12-31T04:15:48.990Z,0.10
2022-12-31T04:20:50.693Z,0.40
2022-12-31T04:25:53.813Z,0.10
2022-12-31T04:30:55.488Z,0.40
2022-12-31T04:36:01.561Z,0.60
2022-12-31T04:41:19.719Z,0.20
2022-12-31T04:46:26.488Z,0.20
2022-12-31T04:51:29.652Z,0.10
2022-12-31T04:56:32.379Z,0.68
2022-12-31T05:01:34.314Z,0.70
2022-12-31T05:06:36.180Z,0.80
2022-12-31T05:11:38.174Z,0.95
2022-12-31T05:16:39.902Z,1.10
2022-12-31T05:21:41.593Z,1.20
2022-12-31T05:26:43.285Z,1.40
2022-12-31T05:31:44.936Z,0.90
2022-12-31T05:36:46.598Z,1.00
2022-12-31T05:41:48.268Z,1.45
2022-12-31T05:46:49.966Z,1.65
2022-12-31T05:51:51.614Z,1.65
2022-12-31T05:56:53.249Z,1.90
2022-12-31T06:01:54.929Z,2.15
2022-12-31T06:06:56.657Z,1.60
2022-12-31T06:11:58.332Z,1.52
2022-12-31T06:17:00.436Z,1.42
2022-12-31T06:22:02.163Z,2.53
2022-12-31T06:27:03.965Z,1.50
2022-12-31T06:32:06.278Z,2.75
2022-12-31T06:37:07.905Z,0.95
2022-12-31T06:42:09.576Z,4.82
2022-12-31T06:47:11.180Z,3.45
2022-12-31T06:52:12.945Z,0.80
2022-12-31T06:57:15.187Z,1.17
2022-12-31T07:02:23.376Z,1.25
2022-12-31T07:08:03.474Z,1.73
2022-12-31T07:13:32.916Z,1.65
2022-12-31T07:18:45.968Z,0.60
2022-12-31T07:23:47.909Z,2.05
2022-12-31T07:29:00.779Z,2.00
2022-12-31T07:34:17.359Z,1.00
2022-12-31T07:39:28.240Z,2.22
2022-12-31T07:44:44.179Z,5.18
2022-12-31T07:49:46.514Z,0.85
2022-12-31T07:54:48.286Z,1.23
2022-12-31T08:06:28.113Z,1.75
2022-12-31T08:11:47.352Z,3.03
2022-12-31T08:16:49.605Z,1.02
2022-12-31T08:22:03.141Z,1.63
2022-12-31T08:27:33.487Z,3.08
2022-12-31T08:33:06.943Z,2.20
2022-12-31T08:38:31.745Z,1.23
2022-12-31T08:43:46.647Z,1.42
2022-12-31T08:48:48.511Z,2.47
2022-12-31T08:53:50.859Z,1.05
2022-12-31T08:58:59.571Z,1.92
2022-12-31T09:04:08.069Z,3.15
2022-12-31T09:09:26.857Z,1.77
2022-12-31T09:14:42.187Z,2.03
2022-12-31T09:19:43.948Z,5.13
2022-12-31T09:24:45.957Z,1.92
2022-12-31T09:30:12.444Z,2.60
2022-12-31T09:35:35.489Z,4.15
2022-12-31T09:41:02.815Z,2.95
2022-12-31T09:46:40.997Z,3.63
2022-12-31T09:52:10.769Z,4.45
2022-12-31T09:57:21.315Z,2.90
2022-12-31T10:02:42.086Z,2.30
2022-12-31T10:07:53.886Z,4.18
2022-12-31T10:13:14.435Z,2.47
2022-12-31T10:18:46.887Z,3.95
2022-12-31T10:24:16.653Z,1.25
2022-12-31T10:29:45.229Z,3.63
2022-12-31T10:34:53.112Z,2.55
2022-12-31T10:40:09.437Z,1.42
2022-12-31T10:45:13.895Z,3.47
2022-12-31T10:50:33.799Z,4.13
2022-12-31T10:55:54.431Z,1.83
2022-12-31T11:01:27.132Z,3.20
2022-12-31T11:06:28.877Z,4.05
2022-12-31T11:11:52.596Z,5.00
2022-12-31T11:17:24.613Z,2.60
2022-12-31T11:22:42.301Z,2.55
2022-12-31T11:27:47.675Z,4.13
2022-12-31T11:32:53.947Z,3.55
2022-12-31T11:38:22.648Z,1.85
2022-12-31T11:44:14.758Z,2.38
2022-12-31T11:49:45.099Z,2.85
2022-12-31T11:55:17.862Z,4.43
2022-12-31T12:00:20.670Z,3.42
2022-12-31T12:05:24.384Z,3.63
2022-12-31T12:10:35.586Z,3.23
2022-12-31T12:15:38.911Z,4.40
2022-12-31T12:20:44.058Z,3.58
2022-12-31T12:25:45.926Z,2.97
2022-12-31T12:30:54.844Z,4.65
2022-12-31T12:36:15.378Z,4.18
2022-12-31T12:41:25.292Z,3.30
2022-12-31T12:46:47.810Z,6.72
2022-12-31T12:52:23.617Z,3.33
2022-12-31T12:57:34.454Z,3.38
2022-12-31T13:02:51.041Z,2.28
2022-12-31T13:08:32.142Z,2.67
2022-12-31T13:13:40.662Z,1.25
2022-12-31T13:19:13.665Z,5.88
2022-12-31T13:24:29.684Z,2.42
2022-12-31T13:29:34.743Z,3.90
2022-12-31T13:34:41.725Z,2.72
2022-12-31T13:39:44.914Z,2.60
2022-12-31T13:44:47.725Z,3.38
2022-12-31T13:49:57.632Z,2.83
2022-12-31T13:55:40.057Z,2.42
2022-12-31T14:01:05.207Z,2.55
2022-12-31T14:06:19.575Z,2.83
2022-12-31T14:11:49.122Z,3.33
2022-12-31T14:16:53.867Z,1.85
2022-12-31T14:22:06.807Z,3.60
2022-12-31T14:27:32.630Z,3.30
2022-12-31T14:32:50.617Z,3.35
2022-12-31T14:38:10.207Z,6.18
2022-12-31T14:43:38.467Z,2.50
2022-12-31T14:49:35.412Z,2.13
2022-12-31T14:54:38.163Z,5.07
2022-12-31T14:59:40.813Z,4.65
2022-12-31T15:04:45.028Z,5.53
2022-12-31T15:09:59.394Z,3.40
2022-12-31T15:15:19.961Z,2.53
2022-12-31T15:20:37.722Z,5.25
2022-12-31T15:25:41.661Z,2.28
2022-12-31T15:30:48.526Z,5.10
2022-12-31T15:35:55.702Z,1.80
2022-12-31T15:40:57.842Z,4.18
2022-12-31T15:46:00.096Z,5.68
2022-12-31T15:51:02.308Z,3.60
2022-12-31T15:56:05.782Z,2.85
2022-12-31T16:01:21.725Z,2.30
2022-12-31T16:06:27.402Z,2.17
2022-12-31T16:11:30.514Z,4.10
2022-12-31T16:16:33.365Z,3.80
2022-12-31T16:21:38.832Z,3.15
2022-12-31T16:26:48.095Z,2.60
2022-12-31T16:31:53.144Z,4.30
2022-12-31T16:36:57.107Z,4.97
2022-12-31T16:42:13.987Z,3.88
2022-12-31T16:47:22.573Z,2.58
2022-12-31T16:52:40.833Z,5.18
2022-12-31T16:57:46.836Z,2.58
2022-12-31T17:03:03.199Z,3.50
2022-12-31T17:08:38.007Z,7.60
2022-12-31T17:18:44.158Z,7.57
2022-12-31T17:23:54.545Z,8.02
2022-12-31T17:28:58.601Z,5.60
2022-12-31T17:34:20.192Z,5.05
2022-12-31T17:39:23.176Z,6.10
2022-12-31T17:44:28.790Z,6.40
2022-12-31T17:49:31.815Z,4.35
2022-12-31T17:54:33.438Z,6.07
2022-12-31T17:59:40.111Z,5.28
2022-12-31T18:04:41.809Z,5.60
2022-12-31T18:09:43.518Z,4.47
2022-12-31T18:14:45.886Z,4.50
2022-12-31T18:20:04.633Z,6.20
2022-12-31T18:25:07.411Z,6.22
2022-12-31T18:30:11.202Z,6.60
2022-12-31T18:35:40.303Z,5.65
2022-12-31T18:40:42.590Z,3.67
2022-12-31T18:45:45.761Z,5.25
2022-12-31T18:50:48.352Z,5.07
2022-12-31T18:55:53.200Z,10.30
2022-12-31T19:00:54.968Z,6.40
2022-12-31T19:05:56.961Z,10.02
2022-12-31T19:10:58.707Z,8.93
2022-12-31T19:16:01.159Z,6.72
2022-12-31T19:21:03.464Z,8.07
2022-12-31T19:26:05.544Z,7.13
2022-12-31T19:31:07.194Z,5.45
2022-12-31T19:36:19.495Z,4.32
2022-12-31T19:41:22.248Z,6.63
2022-12-31T19:46:27.769Z,6.18
2022-12-31T19:51:29.588Z,5.13
2022-12-31T19:56:31.561Z,4.43
2022-12-31T20:01:33.539Z,5.18
2022-12-31T20:06:35.333Z,5.80
2022-12-31T20:11:37.066Z,5.38
2022-12-31T20:16:38.956Z,6.43
2022-12-31T20:21:41.866Z,8.10
2022-12-31T20:26:43.670Z,8.85
2022-12-31T20:31:45.386Z,4.55
2022-12-31T20:36:47.253Z,7.78
2022-12-31T20:41:49.380Z,6.90
2022-12-31T20:46:51.149Z,5.93
2022-12-31T20:51:52.984Z,9.07
2022-12-31T20:56:54.690Z,6.18
2022-12-31T21:02:20.432Z,4.93
2022-12-31T21:07:18.105Z,5.07
2022-12-31T21:12:38.411Z,4.57
2022-12-31T21:17:40.131Z,8.50
2022-12-31T21:22:41.856Z,7.25
2022-12-31T21:27:43.669Z,5.10
2022-12-31T21:32:46.585Z,3.10
2022-12-31T21:37:58.590Z,11.60
2022-12-31T21:43:02.368Z,3.58
2022-12-31T21:48:19.855Z,5.30
2022-12-31T21:53:30.422Z,5.25
2022-12-31T21:58:34.641Z,5.43
2022-12-31T22:03:36.616Z,6.30
2022-12-31T22:08:43.635Z,5.32
2022-12-31T22:13:46.323Z,2.53
2022-12-31T22:18:48.572Z,3.30
2022-12-31T22:23:52.868Z,4.38
2022-12-31T22:34:01.866Z,7.05
2022-12-31T22:39:03.771Z,5.90
2022-12-31T22:44:05.596Z,7.95
2022-12-31T22:49:12.140Z,7.45
2022-12-31T22:54:14.870Z,6.78
2022-12-31T22:59:17.622Z,7.80
2022-12-31T23:04:19.389Z,33.80
2022-12-31T23:09:40.082Z,96.57
2022-12-31T23:15:00.760Z,95.65
2022-12-31T23:20:23.699Z,171.77
2022-12-31T23:25:25.437Z,59.47
2022-12-31T23:30:27.382Z,46.58
2022-12-31T23:35:29.049Z,57.88
2022-12-31T23:40:34.379Z,25.35
2022-12-31T23:45:36.978Z,32.00
2022-12-31T23:50:40.428Z,15.00
2022-12-31T23:55:42.116Z,15.35
